Time;durP1;ratioP1;P1;durP2;ratioP2;P2;SDS_P1;SDS_P2;PMS_P1;PMS_P2;Temp;Humidity;BMP_temperature;BMP_pressure;BME280_temperature;BME280_humidity;BME280_pressure;Samples;Min_cycle;Max_cycle;Signal;HPM_P1;HPM_P2
2022/09/24 00:03:35;;;;;;;3.45;0.80;;;;;;;;;;10456017;28;20740;-77
2022/09/24 00:08:40;;;;;;;2.45;0.75;;;;;;;;;;10448576;28;20053;-77
2022/09/24 00:13:43;;;;;;;1.52;0.80;;;;;;;;;;10454582;28;20825;-77
2022/09/24 00:18:47;;;;;;;1.88;0.88;;;;;;;;;;10458761;28;20187;-76
2022/09/24 00:23:53;;;;;;;2.55;1.27;;;;;;;;;;10473009;28;20125;-77
2022/09/24 00:28:57;;;;;;;1.27;1.00;;;;;;;;;;10468515;28;20037;-77
2022/09/24 00:34:00;;;;;;;2.20;1.05;;;;;;;;;;10444820;28;20432;-76
2022/09/24 00:39:06;;;;;;;5.63;1.00;;;;;;;;;;10457288;28;20044;-77
2022/09/24 00:44:52;;;;;;;1.30;0.97;;;;;;;;;;10475141;28;20082;-77
2022/09/24 00:50:04;;;;;;;1.33;0.70;;;;;;;;;;10453024;28;20059;-77
2022/09/24 00:55:10;;;;;;;1.42;0.80;;;;;;;;;;10448640;28;20048;-77
2022/09/24 01:00:14;;;;;;;1.77;0.90;;;;;;;;;;10462573;28;20049;-76
2022/09/24 01:05:18;;;;;;;1.58;1.05;;;;;;;;;;10456974;28;20417;-80
2022/09/24 01:10:48;;;;;;;1.20;1.08;;;;;;;;;;10474395;28;20644;-77
2022/09/24 01:15:59;;;;;;;2.30;0.90;;;;;;;;;;10462527;28;20068;-78
2022/09/24 01:21:25;;;;;;;1.05;0.95;;;;;;;;;;10484190;28;20044;-75
2022/09/24 01:26:50;;;;;;;0.80;0.73;;;;;;;;;;10490228;28;20043;-78
2022/09/24 01:32:02;;;;;;;1.85;0.73;;;;;;;;;;10477425;28;20056;-77
2022/09/24 01:37:06;;;;;;;1.27;0.98;;;;;;;;;;10489046;28;20504;-76
2022/09/24 01:42:10;;;;;;;1.75;1.08;;;;;;;;;;10478757;28;20405;-77
2022/09/24 01:47:20;;;;;;;1.77;0.80;;;;;;;;;;10479816;28;20654;-76
2022/09/24 01:52:28;;;;;;;1.20;0.70;;;;;;;;;;10446200;28;20120;-76
2022/09/24 01:57:35;;;;;;;2.35;0.88;;;;;;;;;;10478223;28;20475;-76
2022/09/24 02:02:45;;;;;;;2.22;1.00;;;;;;;;;;10462242;28;20416;-77
2022/09/24 02:07:57;;;;;;;1.00;0.90;;;;;;;;;;10477870;28;20720;-76
2022/09/24 02:13:05;;;;;;;0.60;0.60;;;;;;;;;;10470417;28;20045;-76
2022/09/24 02:18:14;;;;;;;2.28;0.80;;;;;;;;;;10454470;28;20505;-76
2022/09/24 02:23:19;;;;;;;1.92;0.63;;;;;;;;;;10478711;28;20043;-77
2022/09/24 02:28:22;;;;;;;2.15;0.80;;;;;;;;;;10469247;28;20049;-77
2022/09/24 02:38:49;;;;;;;0.73;0.73;;;;;;;;;;10466057;28;20045;-77
2022/09/24 02:43:53;;;;;;;1.10;0.90;;;;;;;;;;10462312;28;20078;-78
2022/09/24 02:48:58;;;;;;;1.00;0.80;;;;;;;;;;10477820;28;20040;-77
2022/09/24 02:54:01;;;;;;;1.27;0.93;;;;;;;;;;10493311;28;20508;-76
2022/09/24 02:59:06;;;;;;;1.17;0.90;;;;;;;;;;10464900;28;20045;-78
2022/09/24 03:04:11;;;;;;;1.63;0.90;;;;;;;;;;10465755;28;20051;-77
2022/09/24 03:09:15;;;;;;;1.13;0.70;;;;;;;;;;10476912;28;20482;-76
2022/09/24 03:14:18;;;;;;;2.65;0.93;;;;;;;;;;10468906;28;20544;-76
2022/09/24 03:19:22;;;;;;;2.63;0.90;;;;;;;;;;10471295;28;20696;-76
2022/09/24 03:24:25;;;;;;;2.13;0.73;;;;;;;;;;10450302;28;20040;-77
2022/09/24 03:34:52;;;;;;;1.25;1.13;;;;;;;;;;10456562;28;20485;-77
2022/09/24 03:39:56;;;;;;;1.00;0.90;;;;;;;;;;10475963;28;20560;-77
2022/09/24 03:44:59;;;;;;;1.55;1.00;;;;;;;;;;10469008;28;20559;-77
2022/09/24 03:50:04;;;;;;;2.65;1.00;;;;;;;;;;10461993;28;20520;-76
2022/09/24 03:55:08;;;;;;;1.05;0.90;;;;;;;;;;10476418;28;20041;-77
2022/09/24 04:00:12;;;;;;;0.90;0.73;;;;;;;;;;10465739;28;20447;-78
2022/09/24 04:05:17;;;;;;;1.73;0.80;;;;;;;;;;10475573;28;20033;-77
2022/09/24 04:10:20;;;;;;;2.33;0.90;;;;;;;;;;10490323;28;20048;-77
2022/09/24 04:15:23;;;;;;;0.60;0.60;;;;;;;;;;10464206;28;20037;-77
2022/09/24 04:20:29;;;;;;;0.90;0.60;;;;;;;;;;10439104;28;20052;-78
2022/09/24 04:25:33;;;;;;;0.95;0.65;;;;;;;;;;10470210;28;20040;-78
2022/09/24 04:30:37;;;;;;;1.20;0.50;;;;;;;;;;10462021;28;20074;-77
2022/09/24 04:35:42;;;;;;;2.05;0.70;;;;;;;;;;10475572;28;20052;-76
2022/09/24 04:40:46;;;;;;;0.73;0.60;;;;;;;;;;10477110;28;20052;-77
2022/09/24 04:45:49;;;;;;;0.73;0.70;;;;;;;;;;10464579;28;20037;-79
2022/09/24 04:50:53;;;;;;;0.90;0.63;;;;;;;;;;10461103;28;20080;-76
2022/09/24 04:55:57;;;;;;;0.70;0.60;;;;;;;;;;10457334;28;20040;-77
2022/09/24 05:01:02;;;;;;;1.00;0.70;;;;;;;;;;10471808;28;20037;-77
2022/09/24 05:06:07;;;;;;;1.83;1.33;;;;;;;;;;10454186;28;20044;-77
2022/09/24 05:11:11;;;;;;;1.17;0.90;;;;;;;;;;10472774;28;20044;-77
2022/09/24 05:16:15;;;;;;;1.63;1.20;;;;;;;;;;10464156;28;20036;-77
2022/09/24 05:21:20;;;;;;;1.42;1.20;;;;;;;;;;10438833;28;20501;-76
2022/09/24 05:31:44;;;;;;;1.25;1.10;;;;;;;;;;10451065;28;20056;-76
2022/09/24 05:36:49;;;;;;;1.15;0.85;;;;;;;;;;10455460;28;20048;-76
2022/09/24 05:41:52;;;;;;;1.20;0.88;;;;;;;;;;10477171;28;20045;-77
2022/09/24 05:46:55;;;;;;;2.08;0.70;;;;;;;;;;10475619;28;20048;-78
2022/09/24 05:52:00;;;;;;;0.93;0.85;;;;;;;;;;10446472;28;20114;-77
2022/09/24 05:57:03;;;;;;;1.33;0.88;;;;;;;;;;10456115;28;20044;-77
2022/09/24 06:02:08;;;;;;;0.75;0.75;;;;;;;;;;10464504;28;20101;-77
2022/09/24 06:07:13;;;;;;;2.00;0.90;;;;;;;;;;10464097;28;20041;-77
2022/09/24 06:12:16;;;;;;;1.27;0.88;;;;;;;;;;10479249;28;20699;-77
2022/09/24 06:17:19;;;;;;;3.40;1.10;;;;;;;;;;10446956;28;20052;-76
2022/09/24 06:22:24;;;;;;;1.00;0.93;;;;;;;;;;10454591;28;20037;-77
2022/09/24 06:27:30;;;;;;;1.92;1.30;;;;;;;;;;10441991;28;20060;-76
2022/09/24 06:32:33;;;;;;;2.30;1.40;;;;;;;;;;10445334;28;20043;-78
2022/09/24 06:37:38;;;;;;;1.08;0.95;;;;;;;;;;10440528;28;20048;-80
2022/09/24 06:42:41;;;;;;;1.45;1.10;;;;;;;;;;10446667;28;20048;-78
2022/09/24 06:47:51;;;;;;;2.53;1.30;;;;;;;;;;10435790;28;20049;-77
2022/09/24 06:52:56;;;;;;;2.55;1.40;;;;;;;;;;10463765;28;20049;-77
2022/09/24 06:58:04;;;;;;;1.98;0.90;;;;;;;;;;10459781;28;20037;-80
2022/09/24 07:03:07;;;;;;;2.10;0.85;;;;;;;;;;10481850;28;20444;-77
2022/09/24 07:08:12;;;;;;;0.73;0.73;;;;;;;;;;10454231;28;20052;-80
2022/09/24 07:13:16;;;;;;;0.93;0.80;;;;;;;;;;10461109;28;20052;-77
2022/09/24 07:18:20;;;;;;;0.60;0.60;;;;;;;;;;10460099;28;20055;-77
2022/09/24 07:23:26;;;;;;;1.75;1.00;;;;;;;;;;10441027;28;20045;-77
2022/09/24 07:28:29;;;;;;;1.13;1.03;;;;;;;;;;10436954;28;20762;-77
2022/09/24 07:33:33;;;;;;;1.05;0.70;;;;;;;;;;10452903;28;20815;-77
2022/09/24 07:40:22;;;;;;;1.45;1.00;;;;;;;;;;10530568;27;20871;-78
2022/09/24 07:45:27;;;;;;;1.33;0.98;;;;;;;;;;10461620;28;20040;-76
2022/09/24 07:50:32;;;;;;;1.30;0.90;;;;;;;;;;10481112;28;20048;-77
2022/09/24 07:55:39;;;;;;;1.52;1.02;;;;;;;;;;10481094;28;20044;-78
2022/09/24 08:00:43;;;;;;;2.05;1.48;;;;;;;;;;10477529;28;20049;-76
2022/09/24 08:05:46;;;;;;;0.90;0.80;;;;;;;;;;10480451;28;20044;-77
2022/09/24 08:10:50;;;;;;;1.42;1.05;;;;;;;;;;10478334;28;20058;-77
2022/09/24 08:15:58;;;;;;;3.47;2.03;;;;;;;;;;10474543;28;20041;-77
2022/09/24 08:21:05;;;;;;;3.78;2.03;;;;;;;;;;10469139;28;20051;-77
2022/09/24 08:26:10;;;;;;;2.10;1.60;;;;;;;;;;10464719;28;20037;-78
2022/09/24 08:31:13;;;;;;;1.58;1.02;;;;;;;;;;10465948;28;20045;-78
2022/09/24 08:36:18;;;;;;;0.95;0.82;;;;;;;;;;10454553;28;20402;-78
2022/09/24 08:41:46;;;;;;;1.55;0.90;;;;;;;;;;10458452;28;20049;-78
2022/09/24 08:52:38;;;;;;;1.52;1.00;;;;;;;;;;10396191;28;20037;-77
2022/09/24 08:57:54;;;;;;;1.33;1.23;;;;;;;;;;10481730;28;20045;-78
2022/09/24 09:03:06;;;;;;;1.00;0.90;;;;;;;;;;10504175;28;20044;-78
2022/09/24 09:08:18;;;;;;;1.70;1.13;;;;;;;;;;10485568;28;20040;-78
2022/09/24 09:13:42;;;;;;;2.63;1.70;;;;;;;;;;10522563;28;20048;-76
2022/09/24 09:18:47;;;;;;;3.15;1.50;;;;;;;;;;10476765;28;20605;-76
2022/09/24 09:23:52;;;;;;;0.90;0.60;;;;;;;;;;10465651;28;20060;-77
2022/09/24 09:29:00;;;;;;;2.20;1.42;;;;;;;;;;10494207;28;20113;-78
2022/09/24 09:34:30;;;;;;;1.58;1.20;;;;;;;;;;10524590;28;20246;-77
2022/09/24 09:39:42;;;;;;;3.17;1.58;;;;;;;;;;10507069;28;20531;-77
2022/09/24 09:44:47;;;;;;;2.85;1.30;;;;;;;;;;10473758;28;20668;-76
2022/09/24 09:49:55;;;;;;;0.95;0.85;;;;;;;;;;10483259;28;20052;-78
2022/09/24 09:54:59;;;;;;;1.85;0.73;;;;;;;;;;10513971;28;20055;-77
2022/09/24 10:00:05;;;;;;;0.70;0.70;;;;;;;;;;10507586;28;20055;-77
2022/09/24 10:05:21;;;;;;;0.77;0.45;;;;;;;;;;10504966;28;20122;-76
2022/09/24 10:10:29;;;;;;;1.77;0.75;;;;;;;;;;10470358;28;20054;-77
2022/09/24 10:15:34;;;;;;;1.27;0.73;;;;;;;;;;10462244;28;20520;-77
2022/09/24 10:20:38;;;;;;;2.33;1.10;;;;;;;;;;10487833;28;20041;-76
2022/09/24 10:25:49;;;;;;;1.35;0.80;;;;;;;;;;10494649;28;20055;-77
2022/09/24 10:30:56;;;;;;;4.85;2.22;;;;;;;;;;10482108;28;20594;-81
2022/09/24 10:36:06;;;;;;;3.83;1.23;;;;;;;;;;10490625;28;20044;-77
2022/09/24 10:41:22;;;;;;;2.05;1.00;;;;;;;;;;10512567;28;20044;-76
2022/09/24 10:46:49;;;;;;;1.25;0.60;;;;;;;;;;10486766;28;20073;-77
2022/09/24 10:52:02;;;;;;;2.20;0.55;;;;;;;;;;10484372;28;20053;-77
2022/09/24 10:57:12;;;;;;;0.57;0.45;;;;;;;;;;10508893;28;20052;-76
2022/09/24 11:02:36;;;;;;;2.30;0.80;;;;;;;;;;10503118;28;20540;-76
2022/09/24 11:08:06;;;;;;;1.10;0.52;;;;;;;;;;10460477;28;20045;-77
2022/09/24 11:13:15;;;;;;;1.45;0.50;;;;;;;;;;10489105;28;20048;-77
2022/09/24 11:18:31;;;;;;;0.52;0.45;;;;;;;;;;10489626;28;20047;-77
2022/09/24 11:23:55;;;;;;;2.00;0.60;;;;;;;;;;10494590;28;20043;-78
2022/09/24 11:29:14;;;;;;;1.98;0.30;;;;;;;;;;10480751;28;20308;-76
2022/09/24 11:34:41;;;;;;;1.48;0.70;;;;;;;;;;10500960;28;20052;-76
2022/09/24 11:39:59;;;;;;;1.40;0.40;;;;;;;;;;10494022;28;20044;-77
2022/09/24 11:45:27;;;;;;;0.32;0.32;;;;;;;;;;10476069;28;20048;-80
2022/09/24 11:50:45;;;;;;;1.27;0.60;;;;;;;;;;10483780;28;20040;-77
2022/09/24 11:55:54;;;;;;;1.33;0.65;;;;;;;;;;10495824;28;20111;-76
2022/09/24 12:01:01;;;;;;;0.82;0.40;;;;;;;;;;10502287;28;20095;-76
2022/09/24 12:06:09;;;;;;;1.00;0.40;;;;;;;;;;10447106;28;20128;-77
2022/09/24 12:11:16;;;;;;;0.82;0.52;;;;;;;;;;10498839;28;20047;-76
2022/09/24 12:16:23;;;;;;;1.20;0.50;;;;;;;;;;10494599;28;20098;-77
2022/09/24 12:21:33;;;;;;;0.80;0.60;;;;;;;;;;10512217;28;20041;-76
2022/09/24 12:26:38;;;;;;;1.55;0.60;;;;;;;;;;10509031;28;20048;-80
2022/09/24 12:37:17;;;;;;;1.35;0.70;;;;;;;;;;10508377;28;20040;-80
2022/09/24 12:42:22;;;;;;;0.80;0.50;;;;;;;;;;10470068;28;20044;-77
2022/09/24 12:47:30;;;;;;;1.10;0.40;;;;;;;;;;10489457;28;20040;-78
2022/09/24 12:52:39;;;;;;;2.03;0.60;;;;;;;;;;10509192;28;20141;-76
2022/09/24 12:57:49;;;;;;;0.98;0.77;;;;;;;;;;10472452;28;20036;-77
2022/09/24 13:02:53;;;;;;;2.25;0.52;;;;;;;;;;10490319;28;20055;-77
2022/09/24 13:08:00;;;;;;;1.45;0.57;;;;;;;;;;10525228;28;20047;-77
2022/09/24 13:13:21;;;;;;;0.38;0.38;;;;;;;;;;10478339;28;20051;-79
2022/09/24 13:18:24;;;;;;;0.80;0.60;;;;;;;;;;10489534;28;20579;-77
2022/09/24 13:23:43;;;;;;;0.85;0.63;;;;;;;;;;10490645;28;20086;-78
2022/09/24 13:28:56;;;;;;;0.88;0.50;;;;;;;;;;10464198;28;20524;-76
2022/09/24 13:34:02;;;;;;;1.75;0.60;;;;;;;;;;10519030;28;20540;-76
2022/09/24 13:39:13;;;;;;;0.70;0.63;;;;;;;;;;10489656;28;20037;-80
2022/09/24 13:44:22;;;;;;;1.30;0.80;;;;;;;;;;10486253;28;20044;-76
2022/09/24 13:49:25;;;;;;;0.57;0.43;;;;;;;;;;10470026;28;20527;-76
2022/09/24 13:54:34;;;;;;;1.08;0.52;;;;;;;;;;10514235;28;20044;-77
2022/09/24 13:59:37;;;;;;;0.57;0.40;;;;;;;;;;10480329;28;20068;-76
2022/09/24 14:04:41;;;;;;;1.08;0.47;;;;;;;;;;10479929;28;20057;-77
2022/09/24 14:09:47;;;;;;;1.55;0.60;;;;;;;;;;10471535;28;20137;-78
2022/09/24 14:14:53;;;;;;;0.75;0.50;;;;;;;;;;10496725;28;20547;-76
2022/09/24 14:19:57;;;;;;;0.70;0.57;;;;;;;;;;10487915;28;20040;-76
2022/09/24 14:25:03;;;;;;;1.05;0.57;;;;;;;;;;10508249;28;20519;-77
2022/09/24 14:30:09;;;;;;;0.88;0.52;;;;;;;;;;10512201;28;20032;-77
2022/09/24 14:35:20;;;;;;;1.30;0.80;;;;;;;;;;10504299;28;20036;-77
2022/09/24 14:40:26;;;;;;;1.98;0.82;;;;;;;;;;10471507;28;20044;-77
2022/09/24 14:45:34;;;;;;;0.80;0.73;;;;;;;;;;10486775;28;20489;-76
2022/09/24 14:50:39;;;;;;;1.70;0.80;;;;;;;;;;10488015;28;20048;-79
2022/09/24 14:55:45;;;;;;;1.20;0.80;;;;;;;;;;10479878;28;20099;-76
2022/09/24 15:00:50;;;;;;;2.17;0.87;;;;;;;;;;10469143;28;20045;-77
2022/09/24 15:06:01;;;;;;;0.73;0.70;;;;;;;;;;10492805;28;20574;-76
2022/09/24 15:11:06;;;;;;;1.40;0.90;;;;;;;;;;10499409;28;20043;-78
2022/09/24 15:16:20;;;;;;;1.70;1.15;;;;;;;;;;10467751;28;20044;-77
2022/09/24 15:21:24;;;;;;;0.80;0.80;;;;;;;;;;10515272;28;20040;-80
2022/09/24 15:26:32;;;;;;;2.65;1.10;;;;;;;;;;10518787;28;20550;-77
2022/09/24 15:31:35;;;;;;;0.95;0.82;;;;;;;;;;10494389;28;20044;-79
2022/09/24 15:36:39;;;;;;;2.30;0.98;;;;;;;;;;10474270;28;20054;-76
2022/09/24 15:41:43;;;;;;;1.02;0.82;;;;;;;;;;10468354;28;20501;-79
2022/09/24 15:46:50;;;;;;;1.33;0.75;;;;;;;;;;10487228;28;20047;-77
2022/09/24 15:51:56;;;;;;;0.85;0.80;;;;;;;;;;10501416;28;20040;-78
2022/09/24 15:57:01;;;;;;;1.27;0.90;;;;;;;;;;10513502;28;20047;-78
2022/09/24 16:02:16;;;;;;;3.60;2.10;;;;;;;;;;10516660;28;20590;-78
2022/09/24 16:07:19;;;;;;;4.85;2.40;;;;;;;;;;10534275;28;20119;-79
2022/09/24 16:12:26;;;;;;;3.33;2.05;;;;;;;;;;10497706;28;20051;-77
2022/09/24 16:17:30;;;;;;;2.17;1.52;;;;;;;;;;10470233;28;20258;-76
2022/09/24 16:22:33;;;;;;;1.88;1.40;;;;;;;;;;10538737;28;20051;-79
2022/09/24 16:27:39;;;;;;;3.28;1.40;;;;;;;;;;10497255;28;20135;-80
2022/09/24 16:32:43;;;;;;;3.38;1.20;;;;;;;;;;10515739;28;20126;-80
2022/09/24 16:37:46;;;;;;;1.08;0.93;;;;;;;;;;10532494;28;20032;-76
2022/09/24 16:42:50;;;;;;;2.70;1.08;;;;;;;;;;10463393;28;20045;-77
2022/09/24 16:47:54;;;;;;;2.63;1.02;;;;;;;;;;10489221;28;20074;-78
2022/09/24 16:52:57;;;;;;;1.75;1.35;;;;;;;;;;10489194;28;20036;-79
2022/09/24 16:58:02;;;;;;;2.75;1.08;;;;;;;;;;10530178;28;20040;-79
2022/09/24 17:03:05;;;;;;;1.98;0.95;;;;;;;;;;10485468;28;20044;-79
2022/09/24 17:08:08;;;;;;;1.75;1.10;;;;;;;;;;10519032;28;20043;-79
2022/09/24 17:13:14;;;;;;;2.00;1.00;;;;;;;;;;10501319;28;20071;-75
2022/09/24 17:18:17;;;;;;;1.27;1.00;;;;;;;;;;10492108;28;20043;-79
2022/09/24 17:23:20;;;;;;;2.25;1.70;;;;;;;;;;10511010;28;20036;-79
2022/09/24 17:28:25;;;;;;;1.65;1.48;;;;;;;;;;10501587;28;20608;-79
2022/09/24 17:33:29;;;;;;;2.92;1.65;;;;;;;;;;10482159;28;20059;-79
2022/09/24 17:38:48;;;;;;;2.17;1.52;;;;;;;;;;10529340;28;20482;-78
2022/09/24 17:43:52;;;;;;;1.15;0.85;;;;;;;;;;10498654;28;20059;-78
2022/09/24 17:48:59;;;;;;;1.88;1.00;;;;;;;;;;10518635;28;20496;-76
2022/09/24 17:54:03;;;;;;;;;;;;;;;;;;10508289;28;20508;-77
2022/09/24 17:59:09;;;;;;;1.33;0.90;;;;;;;;;;10516375;28;19924;-79
2022/09/24 18:04:14;;;;;;;1.40;1.00;;;;;;;;;;10481735;28;20385;-79
2022/09/24 18:09:18;;;;;;;1.50;1.00;;;;;;;;;;10531505;28;20040;-78
2022/09/24 18:14:24;;;;;;;1.50;1.10;;;;;;;;;;10530946;28;20036;-76
2022/09/24 18:19:27;;;;;;;1.95;1.30;;;;;;;;;;10504093;28;20047;-78
2022/09/24 18:24:31;;;;;;;1.77;1.30;;;;;;;;;;10481824;28;20715;-78
2022/09/24 18:29:36;;;;;;;2.72;1.73;;;;;;;;;;10514228;28;20060;-78
2022/09/24 18:34:39;;;;;;;2.22;1.85;;;;;;;;;;10503853;28;20043;-78
2022/09/24 18:39:42;;;;;;;3.22;1.90;;;;;;;;;;10492835;28;20048;-78
2022/09/24 18:44:47;;;;;;;5.55;2.08;;;;;;;;;;10491064;28;20055;-76
2022/09/24 18:49:50;;;;;;;2.50;2.03;;;;;;;;;;10515105;28;20663;-78
2022/09/24 18:54:55;;;;;;;6.00;2.50;;;;;;;;;;10510875;28;20059;-79
2022/09/24 18:59:59;;;;;;;2.00;1.67;;;;;;;;;;10502334;28;20043;-78
2022/09/24 19:05:02;;;;;;;2.20;1.58;;;;;;;;;;10526438;28;20466;-77
2022/09/24 19:10:07;;;;;;;3.33;1.40;;;;;;;;;;10501035;28;20535;-78
2022/09/24 19:15:11;;;;;;;1.52;1.20;;;;;;;;;;10476890;28;20048;-78
2022/09/24 19:20:15;;;;;;;2.75;1.48;;;;;;;;;;10518999;28;20055;-78
2022/09/24 19:25:18;;;;;;;1.45;1.35;;;;;;;;;;10486894;28;20495;-78
2022/09/24 19:30:23;;;;;;;1.10;1.00;;;;;;;;;;10503117;28;20040;-78
2022/09/24 19:35:26;;;;;;;2.35;1.38;;;;;;;;;;10487881;28;20047;-78
2022/09/24 19:40:30;;;;;;;1.95;1.40;;;;;;;;;;10517641;28;20043;-78
2022/09/24 19:45:35;;;;;;;1.67;1.45;;;;;;;;;;10493836;28;20052;-78
2022/09/24 19:50:39;;;;;;;1.40;1.30;;;;;;;;;;10487025;28;20557;-78
2022/09/24 19:55:42;;;;;;;2.05;1.10;;;;;;;;;;10470297;28;20045;-78
2022/09/24 20:00:47;;;;;;;1.98;1.20;;;;;;;;;;10497290;28;20040;-78
2022/09/24 20:05:50;;;;;;;3.45;1.50;;;;;;;;;;10490940;28;20093;-78
2022/09/24 20:10:53;;;;;;;1.85;1.38;;;;;;;;;;10476558;28;20690;-78
2022/09/24 20:16:00;;;;;;;2.45;1.45;;;;;;;;;;10490499;28;20055;-78
2022/09/24 20:21:04;;;;;;;2.72;1.75;;;;;;;;;;10460587;28;20131;-78
2022/09/24 20:31:32;;;;;;;2.03;1.67;;;;;;;;;;10493557;28;20032;-78
2022/09/24 20:36:35;;;;;;;2.17;1.77;;;;;;;;;;10468793;28;20051;-77
2022/09/24 20:41:38;;;;;;;2.13;1.83;;;;;;;;;;10487309;28;20056;-78
2022/09/24 20:46:43;;;;;;;1.85;1.52;;;;;;;;;;10495466;28;20079;-78
2022/09/24 20:51:47;;;;;;;2.70;2.05;;;;;;;;;;10479909;28;20056;-78
2022/09/24 20:56:51;;;;;;;2.80;1.95;;;;;;;;;;10481222;28;20056;-77
2022/09/24 21:01:56;;;;;;;2.15;1.35;;;;;;;;;;10473882;28;20048;-78
2022/09/24 21:07:00;;;;;;;2.08;1.80;;;;;;;;;;10488286;28;20043;-78
2022/09/24 21:12:03;;;;;;;2.70;1.73;;;;;;;;;;10478294;28;20040;-78
2022/09/24 21:17:09;;;;;;;3.30;2.08;;;;;;;;;;10465322;28;20491;-77
2022/09/24 21:22:12;;;;;;;2.78;1.77;;;;;;;;;;10508604;28;20044;-78
2022/09/24 21:27:17;;;;;;;2.00;1.80;;;;;;;;;;10499916;28;20092;-78
2022/09/24 21:32:22;;;;;;;4.53;2.22;;;;;;;;;;10525026;28;20040;-78
2022/09/24 21:37:27;;;;;;;2.67;2.03;;;;;;;;;;10518090;28;20040;-78
2022/09/24 21:42:33;;;;;;;3.05;1.70;;;;;;;;;;10497706;28;20537;-78
2022/09/24 21:47:38;;;;;;;2.50;2.00;;;;;;;;;;10485186;28;20048;-78
2022/09/24 21:52:42;;;;;;;2.60;1.80;;;;;;;;;;10498475;28;20040;-78
2022/09/24 21:57:45;;;;;;;2.05;1.85;;;;;;;;;;10483318;28;20045;-79
2022/09/24 22:02:55;;;;;;;2.35;1.73;;;;;;;;;;10496850;28;20047;-78
2022/09/24 22:07:58;;;;;;;1.83;1.73;;;;;;;;;;10466162;28;20055;-78
2022/09/24 22:13:01;;;;;;;2.38;1.75;;;;;;;;;;10502773;28;20059;-79
2022/09/24 22:18:06;;;;;;;2.95;1.50;;;;;;;;;;10476531;28;20044;-79
2022/09/24 22:23:10;;;;;;;1.90;1.50;;;;;;;;;;10488592;28;20135;-80
2022/09/24 22:28:13;;;;;;;2.40;1.90;;;;;;;;;;10505049;28;20059;-79
2022/09/24 22:38:41;;;;;;;2.03;1.40;;;;;;;;;;10457910;28;20067;-79
2022/09/24 22:43:44;;;;;;;1.85;1.60;;;;;;;;;;10478550;28;20051;-79
2022/09/24 22:48:49;;;;;;;3.00;2.05;;;;;;;;;;10481257;28;20559;-79
2022/09/24 22:53:53;;;;;;;1.83;1.52;;;;;;;;;;10489979;28;20032;-79
2022/09/24 22:58:58;;;;;;;1.75;1.65;;;;;;;;;;10474056;28;20036;-79
2022/09/24 23:04:02;;;;;;;1.60;1.50;;;;;;;;;;10496010;28;20039;-80
2022/09/24 23:09:06;;;;;;;1.33;1.20;;;;;;;;;;10514604;28;20052;-80
2022/09/24 23:14:13;;;;;;;1.30;1.20;;;;;;;;;;10497501;28;20060;-81
2022/09/24 23:19:19;;;;;;;1.38;1.20;;;;;;;;;;10467296;28;20135;-80
2022/09/24 23:24:22;;;;;;;1.33;1.05;;;;;;;;;;10494308;28;20072;-80
2022/09/24 23:29:26;;;;;;;2.13;1.30;;;;;;;;;;10504252;28;20118;-80
2022/09/24 23:34:30;;;;;;;1.40;1.30;;;;;;;;;;10505038;28;20040;-79
2022/09/24 23:39:34;;;;;;;1.98;1.20;;;;;;;;;;10518359;28;20090;-79
2022/09/24 23:44:37;;;;;;;1.58;1.30;;;;;;;;;;10519028;28;20044;-80
2022/09/24 23:49:42;;;;;;;1.67;1.50;;;;;;;;;;10468924;28;20056;-79
2022/09/24 23:54:45;;;;;;;2.85;1.35;;;;;;;;;;10489251;28;20123;-78
2022/09/24 23:59:48;;;;;;;1.45;1.35;;;;;;;;;;10504430;28;20044;-79
